Time;durP1;ratioP1;P1;durP2;ratioP2;P2;SDS_P1;SDS_P2;PMS_P1;PMS_P2;Temp;Humidity;BMP_temperature;BMP_pressure;BME280_temperature;BME280_humidity;BME280_pressure;Samples;Min_cycle;Max_cycle;Signal;HPM_P1;HPM_P2
2022/06/19 00:01:15;;;;;;;11.60;2.13;;;;;;;17.15;49.06;101232.28;5241637;28;20418;-49
2022/06/19 00:03:55;;;;;;;7.85;2.25;;;;;;;17.22;48.88;101252.72;5239079;28;21423;-46
2022/06/19 00:06:28;;;;;;;7.05;1.95;;;;;;;17.49;48.74;101309.97;5238200;28;20546;-51
2022/06/19 00:09:01;;;;;;;7.80;2.28;;;;;;;17.46;48.74;101301.50;5238164;28;20956;-49
2022/06/19 00:11:34;;;;;;;8.70;2.47;;;;;;;17.55;48.43;101303.06;5236917;28;20756;-49
2022/06/19 00:14:08;;;;;;;8.98;2.10;;;;;;;17.80;48.07;101314.34;5237202;28;20417;-56
2022/06/19 00:16:41;;;;;;;8.35;2.08;;;;;;;17.86;48.04;101326.94;5238540;28;20406;-46
2022/06/19 00:19:15;;;;;;;9.10;2.17;;;;;;;17.85;47.95;101336.00;5235468;28;20556;-43
2022/06/19 00:21:48;;;;;;;5.63;1.52;;;;;;;18.00;47.72;101364.56;5237209;28;20414;-51
2022/06/19 00:24:20;;;;;;;15.00;1.90;;;;;;;18.02;47.66;101373.19;5235229;28;20410;-52
2022/06/19 00:26:53;;;;;;;5.97;1.38;;;;;;;18.11;47.37;101398.81;5237494;28;20417;-51
2022/06/19 00:29:32;;;;;;;4.95;1.38;;;;;;;18.13;47.06;101440.38;5238989;28;20912;-51
2022/06/19 00:32:07;;;;;;;7.70;1.98;;;;;;;18.04;47.08;101457.53;5245388;28;20417;-46
2022/06/19 00:34:41;;;;;;;9.82;1.80;;;;;;;18.06;47.07;101458.19;5235071;28;20417;-51
2022/06/19 00:37:14;;;;;;;7.03;1.70;;;;;;;18.05;47.27;101453.00;5229943;28;20422;-46
2022/06/19 00:39:46;;;;;;;7.50;1.97;;;;;;;18.09;47.16;101433.75;5241601;28;20433;-48
2022/06/19 00:42:19;;;;;;;10.60;2.30;;;;;;;17.96;47.03;101385.44;5237642;28;20471;-48
2022/06/19 00:44:51;;;;;;;8.30;2.35;;;;;;;18.07;46.96;101386.84;5222891;28;20468;-49
2022/06/19 00:47:27;;;;;;;7.95;1.92;;;;;;;17.88;47.19;101367.69;5239237;28;20532;-47
2022/06/19 00:50:20;;;;;;;8.95;2.30;;;;;;;17.84;47.20;101370.91;5240393;28;20473;-51
2022/06/19 00:52:53;;;;;;;5.07;1.70;;;;;;;17.83;47.22;101332.66;5236149;28;20964;-46
2022/06/19 00:55:29;;;;;;;7.90;1.80;;;;;;;17.70;47.41;101309.25;5237795;28;20418;-48
2022/06/19 00:58:10;;;;;;;6.47;1.45;;;;;;;17.60;47.66;101299.88;5232622;28;20919;-47
2022/06/19 01:00:46;;;;;;;8.35;1.75;;;;;;;17.61;47.62;101312.19;5233847;28;20486;-49
2022/06/19 01:03:23;;;;;;;6.78;1.80;;;;;;;17.70;47.30;101337.81;5240557;28;20497;-47
2022/06/19 01:05:57;;;;;;;9.70;2.70;;;;;;;17.69;47.14;101336.16;5236403;28;20423;-49
2022/06/19 01:08:30;;;;;;;13.02;2.40;;;;;;;17.83;47.22;101363.91;5234919;28;20475;-49
2022/06/19 01:11:05;;;;;;;6.75;2.03;;;;;;;17.89;47.05;101380.03;5238948;28;20778;-50
2022/06/19 01:13:38;;;;;;;9.43;1.98;;;;;;;17.97;46.84;101398.63;5246473;28;20441;-47
2022/06/19 01:16:12;;;;;;;8.38;2.30;;;;;;;17.95;46.90;101384.63;5238926;28;20416;-49
2022/06/19 01:18:44;;;;;;;8.05;2.15;;;;;;;18.09;46.81;101395.50;5234209;28;20856;-51
2022/06/19 01:21:26;;;;;;;7.30;2.05;;;;;;;18.17;46.74;101395.41;5241580;28;20488;-47
2022/06/19 01:24:08;;;;;;;8.68;2.20;;;;;;;18.18;46.77;101394.41;5244759;28;20532;-49
2022/06/19 01:26:46;;;;;;;12.00;2.33;;;;;;;18.20;46.84;101385.16;5238646;28;20644;-50
2022/06/19 01:29:19;;;;;;;10.97;2.27;;;;;;;18.14;46.93;101369.03;5223548;28;20511;-49
2022/06/19 01:31:55;;;;;;;13.82;3.38;;;;;;;18.02;47.08;101357.97;5239350;28;20438;-47
2022/06/19 01:34:35;;;;;;;11.43;2.47;;;;;;;18.05;47.16;101370.16;5244563;28;20436;-49
2022/06/19 01:37:16;;;;;;;9.40;2.28;;;;;;;17.83;47.32;101326.50;5238525;28;20402;-49
2022/06/19 01:39:53;;;;;;;8.13;2.25;;;;;;;18.14;47.30;101367.19;5240288;28;20400;-48
2022/06/19 01:42:28;;;;;;;5.78;2.20;;;;;;;18.17;47.32;101349.94;5238335;28;20832;-45
2022/06/19 01:45:01;;;;;;;14.50;3.07;;;;;;;17.48;47.46;101230.88;5241633;28;20436;-46
2022/06/19 01:47:33;;;;;;;13.82;2.90;;;;;;;18.08;47.49;101316.31;5236514;28;20491;-49
2022/06/19 01:50:10;;;;;;;14.68;3.13;;;;;;;17.96;47.51;101311.47;5247157;28;20457;-46
2022/06/19 01:52:43;;;;;;;13.40;3.10;;;;;;;18.01;47.63;101312.75;5239527;28;20430;-46
2022/06/19 01:55:18;;;;;;;11.18;2.85;;;;;;;17.61;47.89;101254.25;5242512;28;20426;-50
2022/06/19 01:57:55;;;;;;;10.20;2.40;;;;;;;17.71;48.06;101284.22;5240100;28;20408;-49
2022/06/19 02:00:34;;;;;;;17.30;2.87;;;;;;;17.50;47.77;101252.09;5242869;28;20493;-50
2022/06/19 02:03:12;;;;;;;10.02;2.70;;;;;;;17.63;47.96;101303.00;5239273;28;20404;-49
2022/06/19 02:05:44;;;;;;;9.00;2.53;;;;;;;17.63;47.89;101342.22;5240141;28;20464;-50
2022/06/19 02:08:18;;;;;;;11.15;2.85;;;;;;;17.58;47.73;101382.84;5219810;28;20545;-48
2022/06/19 02:10:52;;;;;;;15.52;2.58;;;;;;;17.69;47.59;101437.66;5234851;28;20831;-53
2022/06/19 02:13:26;;;;;;;14.43;2.78;;;;;;;17.82;47.47;101464.59;5243368;28;20942;-50
2022/06/19 02:15:58;;;;;;;10.45;2.53;;;;;;;17.83;47.34;101442.22;5242179;28;20425;-50
2022/06/19 02:18:52;;;;;;;17.03;3.00;;;;;;;17.82;47.29;101344.38;5239481;28;21005;-52
2022/06/19 02:21:37;;;;;;;14.70;3.23;;;;;;;17.64;47.61;101196.97;5242784;28;20418;-51
2022/06/19 02:24:13;;;;;;;16.57;3.47;;;;;;;17.21;47.91;101103.41;5236708;28;20758;-54
2022/06/19 02:26:47;;;;;;;12.02;2.70;;;;;;;16.96;48.18;101142.91;5237602;28;20463;-49
2022/06/19 02:29:22;;;;;;;10.70;3.35;;;;;;;16.88;48.54;101204.34;5243070;28;20471;-45
2022/06/19 02:31:56;;;;;;;15.10;3.90;;;;;;;16.79;48.54;101184.97;5235646;28;20412;-46
2022/06/19 02:34:33;;;;;;;12.98;2.50;;;;;;;16.74;48.50;101214.81;5238092;28;20492;-44
2022/06/19 02:37:10;;;;;;;10.82;2.38;;;;;;;16.85;48.22;101336.28;5238180;28;20751;-49
2022/06/19 02:39:47;;;;;;;9.48;2.88;;;;;;;16.96;47.91;101313.69;5240917;28;20418;-41
2022/06/19 02:42:33;;;;;;;9.70;2.25;;;;;;;17.01;47.88;101349.50;5238152;28;20407;-45
2022/06/19 02:45:12;;;;;;;7.13;2.10;;;;;;;16.98;47.59;101304.50;5243865;28;20970;-44
2022/06/19 02:47:45;;;;;;;20.83;5.18;;;;;;;16.98;47.61;101242.28;5234005;28;20417;-44
2022/06/19 02:50:22;;;;;;;15.60;4.18;;;;;;;16.72;48.06;101183.97;5240065;28;20512;-42
2022/06/19 02:52:55;;;;;;;16.55;3.60;;;;;;;16.42;48.49;101157.28;5211059;28;20415;-45
2022/06/19 02:55:28;;;;;;;16.88;3.70;;;;;;;16.08;49.16;101113.25;5239233;28;20432;-45
2022/06/19 02:58:01;;;;;;;22.67;4.93;;;;;;;15.68;49.62;101085.91;5236262;28;20503;-48
2022/06/19 03:00:40;;;;;;;18.50;3.63;;;;;;;15.50;50.29;101093.31;5243175;28;20874;-47
2022/06/19 03:03:22;;;;;;;20.75;4.63;;;;;;;15.37;50.63;101045.19;5242357;28;20402;-51
2022/06/19 03:05:55;;;;;;;25.10;5.00;;;;;;;15.13;51.00;101025.69;5241817;28;20413;-47
2022/06/19 03:08:27;;;;;;;17.98;4.53;;;;;;;15.06;51.42;101046.00;5239900;28;20497;-48
2022/06/19 03:11:00;;;;;;;20.92;3.75;;;;;;;14.78;52.00;101021.72;5237483;28;20512;-49
2022/06/19 03:13:32;;;;;;;23.60;4.60;;;;;;;14.80;52.31;101038.31;5241195;28;24798;-45
2022/06/19 03:16:08;;;;;;;21.77;4.32;;;;;;;15.08;52.64;101107.84;5244040;28;20473;-49
2022/06/19 03:18:42;;;;;;;15.70;3.53;;;;;;;15.09;52.85;101103.38;5236873;28;20760;-50
2022/06/19 03:21:14;;;;;;;16.70;3.47;;;;;;;15.05;53.21;101089.59;5237372;28;20428;-50
2022/06/19 03:23:47;;;;;;;18.52;4.20;;;;;;;15.18;53.19;101084.53;5239603;28;20414;-51
2022/06/19 03:26:19;;;;;;;18.17;4.35;;;;;;;15.23;53.39;101103.44;5235051;28;20414;-45
2022/06/19 03:28:52;;;;;;;18.23;3.93;;;;;;;15.30;53.56;101106.25;5237188;28;20422;-49
2022/06/19 03:31:29;;;;;;;16.52;3.28;;;;;;;15.42;53.58;101112.84;5242565;28;20958;-47
2022/06/19 03:34:01;;;;;;;12.07;3.35;;;;;;;15.38;53.77;101100.03;5236992;28;20426;-46
2022/06/19 03:36:33;;;;;;;16.25;3.88;;;;;;;15.54;53.89;101107.94;5240298;28;20412;-52
2022/06/19 03:39:06;;;;;;;13.98;3.08;;;;;;;15.50;54.31;101114.63;5240018;28;20952;-45
2022/06/19 03:41:39;;;;;;;17.95;3.80;;;;;;;15.58;54.42;101148.38;5232338;28;20960;-49
2022/06/19 03:44:12;;;;;;;14.07;3.88;;;;;;;15.53;54.61;101135.56;5238192;28;20891;-47
2022/06/19 03:46:46;;;;;;;20.25;3.47;;;;;;;15.79;54.51;101169.06;5232105;28;20957;-48
2022/06/19 03:49:18;;;;;;;23.40;3.53;;;;;;;15.87;54.63;101171.69;5237279;28;20429;-45
2022/06/19 03:51:51;;;;;;;10.80;2.80;;;;;;;15.90;54.68;101166.00;5246001;28;20414;-49
2022/06/19 03:54:23;;;;;;;20.30;4.20;;;;;;;16.03;54.68;101174.22;5238951;28;20657;-47
2022/06/19 03:56:56;;;;;;;21.83;3.78;;;;;;;16.08;55.01;101166.53;5245497;28;20413;-52
2022/06/19 03:59:28;;;;;;;18.63;3.40;;;;;;;16.11;55.08;101152.84;5244684;28;20522;-52
2022/06/19 04:02:03;;;;;;;17.13;3.15;;;;;;;15.83;55.53;101088.66;5240597;28;20427;-47
2022/06/19 04:04:36;;;;;;;15.75;3.10;;;;;;;16.01;55.61;101125.63;5237899;28;20418;-49
2022/06/19 04:07:11;;;;;;;18.45;3.45;;;;;;;15.96;55.90;101093.38;5244270;28;20513;-45
2022/06/19 04:09:44;;;;;;;15.37;3.47;;;;;;;15.90;56.01;101099.41;5236595;28;20877;-50
2022/06/19 04:12:16;;;;;;;17.17;3.45;;;;;;;15.84;56.30;101121.44;5238463;28;20482;-48
2022/06/19 04:14:50;;;;;;;12.90;3.33;;;;;;;15.76;56.40;101084.19;5236790;28;20901;-48
2022/06/19 04:17:24;;;;;;;12.68;3.25;;;;;;;15.71;56.47;101082.06;5243571;28;20435;-50
2022/06/19 04:19:56;;;;;;;17.42;3.55;;;;;;;15.60;56.67;101128.53;5237392;28;20409;-46
2022/06/19 04:22:29;;;;;;;13.40;3.00;;;;;;;15.57;56.77;101163.47;5236332;28;20428;-48
2022/06/19 04:25:02;;;;;;;14.02;3.40;;;;;;;15.58;56.65;101143.03;5234972;28;20418;-46
2022/06/19 04:27:37;;;;;;;13.75;3.08;;;;;;;15.66;56.60;101140.31;5234957;28;20408;-53
2022/06/19 04:30:11;;;;;;;18.47;4.07;;;;;;;15.63;56.51;101141.50;5242947;28;20402;-48
2022/06/19 04:32:44;;;;;;;16.17;3.83;;;;;;;15.59;56.61;101126.88;5240711;28;20508;-44
2022/06/19 04:35:17;;;;;;;17.17;3.40;;;;;;;15.50;56.84;101109.28;5241138;28;20390;-45
2022/06/19 04:37:49;;;;;;;13.90;3.30;;;;;;;15.40;57.00;101119.34;5241958;28;20415;-49
2022/06/19 04:40:22;;;;;;;18.52;4.10;;;;;;;15.36;57.08;101133.97;5239439;28;20445;-50
2022/06/19 04:42:55;;;;;;;14.02;2.67;;;;;;;15.39;56.85;101134.50;5238021;28;20421;-48
2022/06/19 04:45:27;;;;;;;13.20;3.42;;;;;;;15.44;56.95;101152.59;5242239;28;20444;-49
2022/06/19 04:48:01;;;;;;;14.93;3.42;;;;;;;15.49;56.88;101158.22;5246957;28;21674;-48
2022/06/19 04:50:34;;;;;;;12.40;3.22;;;;;;;15.45;56.88;101144.44;5238891;28;20414;-50
2022/06/19 04:53:06;;;;;;;13.82;3.33;;;;;;;15.50;56.91;101157.22;5241671;28;20812;-49
2022/06/19 04:55:38;;;;;;;14.17;2.83;;;;;;;15.48;57.02;101172.50;5238911;28;20510;-50
2022/06/19 04:58:11;;;;;;;13.90;2.90;;;;;;;15.42;57.13;101165.22;5238095;28;20804;-51
2022/06/19 05:00:43;;;;;;;12.43;2.77;;;;;;;15.50;57.18;101188.31;5237442;28;20521;-43
2022/06/19 05:03:18;;;;;;;15.38;4.15;;;;;;;15.36;57.33;101177.41;5242460;28;20893;-51
2022/06/19 05:05:52;;;;;;;17.73;3.37;;;;;;;15.39;57.34;101192.19;5240336;28;20510;-48
2022/06/19 05:08:24;;;;;;;15.50;3.30;;;;;;;15.42;57.41;101195.34;5237648;28;20498;-49
2022/06/19 05:10:56;;;;;;;18.37;3.30;;;;;;;15.42;57.36;101194.50;5239935;28;20775;-53
2022/06/19 05:13:29;;;;;;;11.60;2.58;;;;;;;15.44;57.46;101201.31;5240720;28;20394;-55
2022/06/19 05:16:08;;;;;;;17.45;3.85;;;;;;;15.50;57.29;101210.44;5245613;28;20414;-55
2022/06/19 05:18:43;;;;;;;13.10;2.83;;;;;;;15.53;57.47;101222.59;5244246;28;20855;-47
2022/06/19 05:21:15;;;;;;;14.63;3.72;;;;;;;15.49;57.59;101200.81;5234974;28;20490;-55
2022/06/19 05:23:50;;;;;;;13.52;3.97;;;;;;;15.48;57.69;101183.16;5237423;28;20489;-54
2022/06/19 05:26:26;;;;;;;16.02;3.88;;;;;;;15.58;57.74;101185.63;5233888;28;20486;-47
2022/06/19 05:28:59;;;;;;;16.10;2.78;;;;;;;15.64;57.66;101187.59;5239898;28;20995;-49
2022/06/19 05:31:34;;;;;;;15.13;3.50;;;;;;;15.70;57.78;101199.41;5239072;28;20501;-50
2022/06/19 05:34:07;;;;;;;18.38;3.53;;;;;;;15.66;57.89;101218.34;5239849;28;20405;-51
2022/06/19 05:36:40;;;;;;;15.35;3.20;;;;;;;15.61;57.89;101212.75;5244268;28;20414;-48
2022/06/19 05:39:12;;;;;;;12.30;2.72;;;;;;;15.79;57.80;101235.63;5237776;28;20519;-48
2022/06/19 05:41:45;;;;;;;23.27;3.65;;;;;;;15.83;57.86;101242.28;5238658;28;20421;-51
2022/06/19 05:44:17;;;;;;;13.07;3.00;;;;;;;15.80;57.86;101226.66;5240462;28;20431;-47
2022/06/19 05:46:50;;;;;;;14.65;3.33;;;;;;;15.58;58.03;101206.94;5237194;28;20512;-47
2022/06/19 05:49:23;;;;;;;15.80;3.72;;;;;;;15.82;58.04;101235.28;5239644;28;20420;-50
2022/06/19 05:51:56;;;;;;;14.73;2.47;;;;;;;15.78;58.24;101224.16;5236870;28;20442;-47
2022/06/19 05:54:29;;;;;;;15.15;3.20;;;;;;;15.76;58.19;101214.69;5239692;28;20561;-46
2022/06/19 05:57:02;;;;;;;16.77;3.97;;;;;;;15.70;58.40;101210.03;5243240;28;20449;-49
2022/06/19 05:59:34;;;;;;;15.32;3.65;;;;;;;15.76;58.31;101212.00;5243907;28;20855;-47
2022/06/19 06:02:09;;;;;;;10.35;2.78;;;;;;;15.74;58.31;101203.38;5239407;28;20498;-47
2022/06/19 06:04:43;;;;;;;16.87;3.57;;;;;;;15.85;58.33;101208.31;5238110;28;20421;-48
2022/06/19 06:07:15;;;;;;;15.70;3.50;;;;;;;15.89;58.26;101209.63;5234161;28;20406;-54
2022/06/19 06:09:48;;;;;;;14.07;3.65;;;;;;;16.01;58.22;101237.53;5240404;28;20511;-49
2022/06/19 06:12:20;;;;;;;11.40;2.87;;;;;;;16.08;57.96;101249.13;5236020;28;22366;-47
2022/06/19 06:14:53;;;;;;;12.83;3.20;;;;;;;16.14;58.17;101245.75;5239221;28;20915;-48
2022/06/19 06:17:25;;;;;;;12.20;2.85;;;;;;;16.17;58.01;101255.25;5241961;28;20406;-50
2022/06/19 06:19:59;;;;;;;7.97;2.58;;;;;;;16.17;58.06;101268.56;5239644;28;20426;-49
2022/06/19 06:22:32;;;;;;;11.07;3.00;;;;;;;16.27;58.08;101281.66;5236135;28;20443;-51
2022/06/19 06:25:05;;;;;;;12.23;2.78;;;;;;;16.25;57.96;101278.34;5240036;28;20411;-49
2022/06/19 06:27:38;;;;;;;12.60;3.33;;;;;;;16.32;58.13;101289.94;5237470;28;20869;-52
2022/06/19 06:30:13;;;;;;;10.90;3.05;;;;;;;16.42;58.02;101311.88;5235170;28;20471;-51
2022/06/19 06:32:45;;;;;;;15.70;2.80;;;;;;;16.47;57.64;101325.50;5239835;28;20493;-53
2022/06/19 06:35:19;;;;;;;12.40;3.03;;;;;;;16.56;57.58;101334.28;5241188;28;20428;-47
2022/06/19 06:37:52;;;;;;;12.90;3.47;;;;;;;16.55;57.49;101338.78;5246562;28;20767;-49
2022/06/19 06:40:58;;;;;;;17.42;3.17;;;;;;;16.64;57.33;101314.75;5238764;28;20426;-52
2022/06/19 06:43:31;;;;;;;10.37;2.90;;;;;;;16.56;57.53;101308.44;5237879;28;20596;-51
2022/06/19 06:46:06;;;;;;;17.23;3.13;;;;;;;16.53;57.64;101319.47;5234660;28;22137;-53
2022/06/19 06:48:39;;;;;;;12.80;3.03;;;;;;;16.51;57.51;101347.34;5238469;28;20493;-48
2022/06/19 06:51:16;;;;;;;15.13;2.88;;;;;;;16.36;57.68;101352.59;5239700;28;20405;-48
2022/06/19 06:53:48;;;;;;;15.95;3.20;;;;;;;16.50;57.46;101365.16;5235904;28;20414;-50
2022/06/19 06:56:22;;;;;;;13.45;3.60;;;;;;;16.62;57.47;101380.75;5243483;28;20461;-51
2022/06/19 06:58:55;;;;;;;17.58;3.90;;;;;;;16.69;57.21;101392.38;5237553;28;20782;-48
2022/06/19 07:01:27;;;;;;;14.85;3.00;;;;;;;16.76;57.09;101401.38;5233461;28;20423;-49
2022/06/19 07:04:00;;;;;;;16.50;3.15;;;;;;;16.85;56.97;101405.66;5238144;28;20411;-48
2022/06/19 07:06:35;;;;;;;14.25;3.20;;;;;;;16.92;56.88;101413.78;5234548;28;21065;-48
2022/06/19 07:09:07;;;;;;;16.17;3.37;;;;;;;17.00;56.94;101427.03;5236484;28;20476;-50
2022/06/19 07:11:42;;;;;;;16.35;3.45;;;;;;;16.95;56.86;101400.91;5240409;28;20505;-48
2022/06/19 07:14:17;;;;;;;14.63;3.50;;;;;;;17.05;56.78;101414.81;5232744;28;20493;-50
2022/06/19 07:16:49;;;;;;;15.38;3.50;;;;;;;17.10;56.96;101426.81;5237367;28;20507;-47
2022/06/19 07:19:21;;;;;;;18.63;3.28;;;;;;;17.13;56.96;101418.47;5240209;28;20435;-52
2022/06/19 07:21:55;;;;;;;8.65;3.08;;;;;;;17.09;57.16;101414.47;5236714;28;20430;-53
2022/06/19 07:24:29;;;;;;;13.75;3.40;;;;;;;17.07;56.92;101389.81;5240226;28;20433;-51
2022/06/19 07:27:01;;;;;;;16.05;3.60;;;;;;;17.26;56.82;101411.50;5247249;28;20816;-48
2022/06/19 07:29:33;;;;;;;17.48;3.95;;;;;;;17.10;57.03;101376.94;5241440;28;21837;-52
2022/06/19 07:32:07;;;;;;;17.77;2.88;;;;;;;17.09;56.87;101387.78;5241239;28;20492;-48
2022/06/19 07:34:41;;;;;;;10.80;2.85;;;;;;;17.18;56.68;101414.22;5238219;28;20402;-49
2022/06/19 07:37:16;;;;;;;14.88;3.65;;;;;;;17.17;57.04;101420.59;5245455;28;20405;-52
2022/06/19 07:39:49;;;;;;;17.63;3.70;;;;;;;17.31;56.72;101442.97;5241423;28;20901;-47
2022/06/19 07:42:21;;;;;;;19.17;4.40;;;;;;;17.33;56.77;101443.66;5239742;28;20496;-53
2022/06/19 07:44:53;;;;;;;13.50;3.50;;;;;;;17.33;56.81;101443.66;5244641;28;20438;-49
2022/06/19 07:50:17;;;;;;;16.13;3.92;;;;;;;17.22;56.64;101404.03;5240813;28;20786;-50
2022/06/19 07:52:52;;;;;;;21.45;4.05;;;;;;;17.44;56.59;101429.06;5241686;28;20932;-52
2022/06/19 07:55:28;;;;;;;15.25;3.22;;;;;;;17.49;56.48;101429.31;5242608;28;20510;-53
2022/06/19 07:58:01;;;;;;;16.77;3.97;;;;;;;17.51;56.52;101420.13;5245233;28;20854;-49
2022/06/19 08:00:37;;;;;;;17.48;3.10;;;;;;;17.54;56.49;101415.44;5241128;28;20406;-51
2022/06/19 08:03:09;;;;;;;14.20;3.75;;;;;;;17.60;56.51;101420.06;5242011;28;20836;-56
2022/06/19 08:05:45;;;;;;;16.55;3.55;;;;;;;17.59;56.46;101399.69;5246554;28;20481;-56
2022/06/19 08:08:21;;;;;;;13.07;3.55;;;;;;;17.34;56.53;101345.69;5236079;28;20443;-53
2022/06/19 08:10:56;;;;;;;13.43;3.42;;;;;;;17.40;56.21;101359.13;5239061;28;20419;-56
2022/06/19 08:13:31;;;;;;;16.10;4.03;;;;;;;17.65;56.49;101388.25;5247669;28;20417;-52
2022/06/19 08:16:09;;;;;;;14.07;3.03;;;;;;;17.67;56.62;101388.94;5229319;28;22226;-51
2022/06/19 08:18:41;;;;;;;16.87;3.33;;;;;;;17.65;56.71;101380.25;5244607;28;20503;-48
2022/06/19 08:21:14;;;;;;;16.83;2.92;;;;;;;17.61;56.92;101370.97;5251905;28;20808;-40
2022/06/19 08:23:51;;;;;;;11.80;2.67;;;;;;;17.65;56.72;101361.56;5252066;28;20505;-57
2022/06/19 08:26:23;;;;;;;16.63;3.78;;;;;;;17.62;56.80;101345.91;5246168;28;20864;-48
2022/06/19 08:28:59;;;;;;;14.55;3.20;;;;;;;17.62;56.73;101329.88;5249007;28;20506;-49
2022/06/19 08:31:34;;;;;;;15.35;3.30;;;;;;;17.75;56.70;101340.75;5252152;28;20422;-50
2022/06/19 08:34:06;;;;;;;15.13;2.95;;;;;;;17.89;56.63;101337.25;5250761;28;20417;-51
2022/06/19 08:36:38;;;;;;;14.52;3.33;;;;;;;17.98;56.46;101346.00;5250864;28;20501;-49
2022/06/19 08:39:15;;;;;;;12.02;2.53;;;;;;;18.00;56.47;101327.97;5250035;28;20878;-48
2022/06/19 08:42:21;;;;;;;13.20;3.47;;;;;;;18.09;56.46;101339.38;5250738;28;20487;-52
2022/06/19 08:45:29;;;;;;;14.27;2.30;;;;;;;18.02;56.69;101330.44;5236204;28;20409;-51
2022/06/19 08:48:47;;;;;;;7.13;2.13;;;;;;;18.01;56.46;101356.34;5248455;28;20413;-48
2022/06/19 08:51:32;;;;;;;9.30;2.28;;;;;;;17.97;56.27;101353.22;5238815;28;20487;-51
2022/06/19 08:54:33;;;;;;;8.70;2.20;;;;;;;17.93;56.20;101338.56;5248538;28;20821;-49
2022/06/19 08:57:14;;;;;;;6.67;1.73;;;;;;;17.87;56.12;101349.16;5248540;28;20408;-53
2022/06/19 09:00:02;;;;;;;5.30;1.98;;;;;;;17.80;56.01;101334.88;5241621;28;20398;-50
2022/06/19 09:02:46;;;;;;;6.63;2.15;;;;;;;17.85;55.78;101338.66;5242778;28;20491;-51
2022/06/19 09:05:44;;;;;;;6.15;2.25;;;;;;;17.76;55.54;101310.34;5239747;28;20493;-54
2022/06/19 09:08:55;;;;;;;7.97;2.38;;;;;;;18.05;55.18;101324.72;5245236;28;20452;-53
2022/06/19 09:11:59;;;;;;;9.30;2.03;;;;;;;18.13;54.97;101314.75;5243897;28;20415;-55
2022/06/19 09:14:43;;;;;;;4.55;1.60;;;;;;;17.90;55.10;101272.13;5238439;28;20404;-51
2022/06/19 09:17:28;;;;;;;10.88;2.22;;;;;;;18.31;54.86;101343.75;5240507;28;20746;-52
2022/06/19 09:20:08;;;;;;;9.63;2.15;;;;;;;18.34;54.71;101346.06;5248517;28;20418;-48
2022/06/19 09:23:33;;;;;;;10.38;1.52;;;;;;;18.20;54.74;101338.88;5250631;28;20495;-49
2022/06/19 09:26:09;;;;;;;7.53;1.92;;;;;;;18.13;54.89;101338.81;5251679;28;20489;-53
2022/06/19 09:28:49;;;;;;;11.55;2.65;;;;;;;17.82;54.84;101306.97;5247950;28;20477;-55
2022/06/19 09:31:29;;;;;;;9.37;2.50;;;;;;;18.11;54.61;101318.63;5246467;28;20406;-48
2022/06/19 09:34:10;;;;;;;7.13;2.03;;;;;;;17.97;54.54;101291.75;5247142;28;20493;-53
2022/06/19 09:36:49;;;;;;;7.82;1.70;;;;;;;18.18;54.69;101330.25;5254575;28;20502;-52
2022/06/19 09:39:27;;;;;;;8.23;1.75;;;;;;;18.23;54.37;101317.13;5239852;28;20398;-53
2022/06/19 09:42:06;;;;;;;6.88;2.08;;;;;;;18.50;54.08;101322.75;5246752;28;20497;-49
2022/06/19 09:44:49;;;;;;;6.07;1.73;;;;;;;18.57;54.00;101302.25;5250227;28;20410;-49
2022/06/19 09:47:29;;;;;;;4.35;1.40;;;;;;;18.56;53.95;101314.81;5242402;28;20873;-49
2022/06/19 09:50:11;;;;;;;4.95;1.55;;;;;;;18.79;53.54;101293.22;5236006;28;20872;-54
2022/06/19 09:52:49;;;;;;;6.40;1.52;;;;;;;19.20;52.96;101297.88;5251189;28;20402;-50
2022/06/19 09:55:29;;;;;;;3.67;1.23;;;;;;;19.48;52.38;101305.91;5248143;28;20437;-51
2022/06/19 09:58:12;;;;;;;8.00;1.50;;;;;;;19.54;52.50;101278.31;5251866;28;20489;-48
2022/06/19 10:00:49;;;;;;;3.75;1.40;;;;;;;19.80;52.13;101296.38;5244831;28;20441;-56
2022/06/19 10:03:27;;;;;;;4.88;1.60;;;;;;;19.80;51.93;101285.66;5241924;28;20410;-50
2022/06/19 10:06:06;;;;;;;4.73;1.53;;;;;;;20.04;51.44;101300.41;5244365;28;20429;-50
2022/06/19 10:08:45;;;;;;;10.38;1.85;;;;;;;19.99;51.25;101268.00;5238563;28;20624;-51
2022/06/19 10:11:22;;;;;;;9.55;2.17;;;;;;;20.30;50.91;101308.72;5246585;28;20398;-49
2022/06/19 10:14:01;;;;;;;8.40;1.83;;;;;;;20.45;50.64;101307.53;5246554;28;20497;-53
2022/06/19 10:16:47;;;;;;;6.35;1.80;;;;;;;20.49;50.51;101302.56;5239167;28;20506;-54
2022/06/19 10:19:24;;;;;;;6.05;1.60;;;;;;;20.56;50.34;101322.22;5249727;28;20830;-49
2022/06/19 10:22:14;;;;;;;4.20;1.40;;;;;;;20.44;50.22;101321.97;5236905;28;20429;-51
2022/06/19 10:25:02;;;;;;;10.40;2.03;;;;;;;20.42;50.09;101312.47;5239864;28;20409;-52
2022/06/19 10:27:45;;;;;;;5.45;1.50;;;;;;;20.11;50.11;101294.25;5242459;28;20418;-51
2022/06/19 10:30:22;;;;;;;5.13;1.27;;;;;;;19.97;50.09;101309.44;5242399;28;20544;-56
2022/06/19 10:33:22;;;;;;;6.30;1.50;;;;;;;20.03;50.14;101319.38;5240687;28;20410;-50
2022/06/19 10:36:00;;;;;;;9.00;2.15;;;;;;;20.24;49.55;101327.28;5241170;28;20479;-50
2022/06/19 10:38:58;;;;;;;7.53;2.22;;;;;;;20.50;49.25;101336.41;5244792;28;20781;-52
2022/06/19 10:44:59;;;;;;;5.35;1.25;;;;;;;20.85;48.71;101365.84;5240808;28;20406;-50
2022/06/19 10:47:46;;;;;;;8.40;2.17;;;;;;;21.00;48.46;101352.19;5246680;28;20489;-53
2022/06/19 10:50:34;;;;;;;6.35;1.70;;;;;;;21.08;48.31;101347.47;5247737;28;21002;-53
2022/06/19 10:53:27;;;;;;;5.95;1.80;;;;;;;20.82;48.29;101334.03;5250564;28;20489;-50
2022/06/19 10:56:10;;;;;;;6.78;1.70;;;;;;;20.56;48.58;101334.81;5238073;28;20425;-53
2022/06/19 10:58:45;;;;;;;5.10;1.48;;;;;;;20.42;48.65;101312.47;5236905;28;20478;-49
2022/06/19 11:04:17;;;;;;;11.05;2.38;;;;;;;20.81;47.84;101338.59;5235760;28;20402;-54
2022/06/19 11:06:57;;;;;;;8.03;2.30;;;;;;;20.94;47.75;101340.47;5237701;28;20421;-54
2022/06/19 11:09:37;;;;;;;9.70;3.05;;;;;;;21.11;47.46;101341.69;5239789;28;21058;-54
2022/06/19 11:12:19;;;;;;;6.10;1.92;;;;;;;20.70;47.54;101304.28;5236104;28;20817;-50
2022/06/19 11:14:57;;;;;;;11.32;2.22;;;;;;;20.98;47.50;101357.78;5236132;28;20405;-50
2022/06/19 11:17:33;;;;;;;8.65;2.53;;;;;;;21.19;47.30;101352.22;5208935;28;20427;-50
2022/06/19 11:20:26;;;;;;;7.77;2.47;;;;;;;21.76;46.47;101349.06;5235508;28;26822;-54
2022/06/19 11:23:07;;;;;;;9.73;2.10;;;;;;;22.03;45.89;101339.84;5232854;28;20475;-48
2022/06/19 11:25:41;;;;;;;9.80;2.40;;;;;;;21.87;46.07;101332.28;5237293;28;20524;-48
2022/06/19 11:28:18;;;;;;;9.27;2.22;;;;;;;22.04;45.71;101328.03;5233008;28;20940;-51
2022/06/19 11:30:53;;;;;;;10.10;2.63;;;;;;;22.06;45.67;101309.03;5237242;28;20935;-51
2022/06/19 11:33:34;;;;;;;9.07;1.98;;;;;;;22.07;45.44;101300.72;5240132;28;20446;-49
2022/06/19 11:36:12;;;;;;;9.82;2.72;;;;;;;22.36;45.12;101328.16;5239898;28;20487;-51
2022/06/19 11:38:49;;;;;;;9.45;2.08;;;;;;;22.72;44.65;101323.97;5236508;28;20489;-52
2022/06/19 11:41:32;;;;;;;11.20;2.30;;;;;;;22.55;44.40;101335.25;5236660;28;20407;-52
2022/06/19 11:44:15;;;;;;;9.17;2.70;;;;;;;22.31;44.85;101344.09;5241008;28;20456;-50
2022/06/19 11:46:51;;;;;;;9.20;1.83;;;;;;;22.53;44.54;101345.41;5243614;28;20454;-53
2022/06/19 11:49:31;;;;;;;9.32;2.28;;;;;;;22.68;43.98;101339.72;5245479;28;20980;-52
2022/06/19 11:52:08;;;;;;;11.48;2.40;;;;;;;22.69;43.84;101335.16;5240658;28;20464;-51
2022/06/19 11:54:47;;;;;;;10.77;2.60;;;;;;;22.82;43.61;101340.44;5240838;28;20917;-49
2022/06/19 11:57:28;;;;;;;9.32;2.17;;;;;;;23.02;43.27;101381.56;5236939;28;20975;-50
2022/06/19 12:00:05;;;;;;;7.57;2.22;;;;;;;23.23;42.91;101419.97;5242117;28;20794;-50
2022/06/19 12:02:41;;;;;;;7.28;2.05;;;;;;;23.05;42.75;101431.50;5240494;28;20812;-51
2022/06/19 12:05:24;;;;;;;6.30;1.60;;;;;;;23.24;42.37;101402.75;5238235;28;20518;-50
2022/06/19 12:08:06;;;;;;;8.10;2.35;;;;;;;23.83;41.57;101438.31;5243419;28;20548;-52
2022/06/19 12:10:41;;;;;;;8.88;2.88;;;;;;;24.29;41.14;101436.97;5240637;28;20413;-52
2022/06/19 12:13:23;;;;;;;6.95;1.88;;;;;;;24.54;40.72;101451.22;5235542;28;20459;-52